createdAt,value
2017-12-23T01:38:21.640Z,47.52
2017-12-23T01:38:22.148Z,47.63
2017-12-23T01:38:22.749Z,47.73
2017-12-23T01:38:23.353Z,47.73
2017-12-23T01:38:23.985Z,47.44
2017-12-23T01:39:18.398Z,47.53
2017-12-23T01:39:18.993Z,47.53
2017-12-23T01:39:19.593Z,47.53
2017-12-23T01:39:20.192Z,47.53
2017-12-23T01:39:20.792Z,47.44
2017-12-23T01:39:21.392Z,47.44
2017-12-23T01:39:21.993Z,47.44
2017-12-23T01:39:22.594Z,47.44
2017-12-23T01:40:16.722Z,46.88
2017-12-23T01:40:17.264Z,46.88
2017-12-23T01:40:17.872Z,46.97
2017-12-23T01:40:18.457Z,46.88
2017-12-23T01:40:19.058Z,46.97
2017-12-23T01:40:19.658Z,47.16
2017-12-23T01:40:20.257Z,46.88
2017-12-23T01:41:13.704Z,46.59
2017-12-23T01:41:14.307Z,46.78
2017-12-23T01:41:14.908Z,46.78
2017-12-23T01:41:15.499Z,46.78
2017-12-23T01:41:16.098Z,46.59
2017-12-23T01:41:16.702Z,46.69
2017-12-23T01:41:17.299Z,46.78
2017-12-23T01:41:17.898Z,46.78
2017-12-23T01:42:12.380Z,46.69
2017-12-23T01:42:12.976Z,46.69
2017-12-23T01:42:13.575Z,46.59
2017-12-23T01:42:14.174Z,46.59
2017-12-23T01:42:14.773Z,46.69
2017-12-23T01:42:15.378Z,46.40
2017-12-23T01:42:15.974Z,46.69
2017-12-23T01:42:16.573Z,46.59
2017-12-23T01:43:10.032Z,46.40
2017-12-23T01:43:10.629Z,46.40
2017-12-23T01:43:11.228Z,46.40
2017-12-23T01:43:11.828Z,46.49
2017-12-23T01:43:12.428Z,46.30
2017-12-23T01:43:13.029Z,46.49
2017-12-23T01:43:13.626Z,46.40
2017-12-23T01:43:14.228Z,46.49
2017-12-23T01:44:08.716Z,46.30
2017-12-23T01:44:09.307Z,46.21
2017-12-23T01:44:09.903Z,46.11
2017-12-23T01:44:10.502Z,46.21
2017-12-23T01:44:11.103Z,46.30
2017-12-23T01:44:11.703Z,46.11
2017-12-23T01:44:12.302Z,46.11
2017-12-23T01:44:12.901Z,46.11
2017-12-23T01:45:06.361Z,46.02
2017-12-23T01:45:06.958Z,46.11
2017-12-23T01:45:07.558Z,46.02
2017-12-23T01:45:08.157Z,46.02
2017-12-23T01:45:08.759Z,46.02
2017-12-23T01:45:09.358Z,46.11
2017-12-23T01:45:09.957Z,46.21
2017-12-23T01:45:10.558Z,46.02
2017-12-23T01:46:05.067Z,45.92
2017-12-23T01:46:05.642Z,46.21
2017-12-23T01:46:06.230Z,45.92
2017-12-23T01:46:06.831Z,45.92
2017-12-23T01:46:07.430Z,45.92
2017-12-23T01:46:08.036Z,46.02
2017-12-23T01:46:08.636Z,46.02
2017-12-23T01:46:09.230Z,45.92
2017-12-23T01:47:03.711Z,45.73
2017-12-23T01:47:04.309Z,45.83
2017-12-23T01:47:04.908Z,46.11
2017-12-23T01:47:05.507Z,45.54
2017-12-23T01:47:06.108Z,45.73
2017-12-23T01:47:06.711Z,46.02
2017-12-23T01:47:07.308Z,45.73
2017-12-23T01:47:07.918Z,45.73
2017-12-23T01:48:01.367Z,46.40
2017-12-23T01:48:01.967Z,46.30
2017-12-23T01:48:02.575Z,46.30
2017-12-23T01:48:03.161Z,46.40
2017-12-23T01:48:03.761Z,46.30
2017-12-23T01:48:04.360Z,46.49
2017-12-23T01:48:04.960Z,46.40
2017-12-23T01:48:05.561Z,46.30
2017-12-23T01:49:00.047Z,45.92
2017-12-23T01:49:00.673Z,45.92
2017-12-23T01:49:01.302Z,45.92
2017-12-23T01:49:01.835Z,45.83
2017-12-23T01:49:02.467Z,45.83
2017-12-23T01:49:03.074Z,45.73
2017-12-23T01:49:03.635Z,45.83
2017-12-23T01:49:04.264Z,45.92
2017-12-23T01:49:58.892Z,45.83
2017-12-23T01:49:59.436Z,45.73
2017-12-23T01:50:00.062Z,45.64
2017-12-23T01:50:00.616Z,45.73
2017-12-23T01:50:01.233Z,45.73
2017-12-23T01:50:01.826Z,45.73
2017-12-23T01:50:02.432Z,45.92
2017-12-23T01:50:03.013Z,45.92
2017-12-23T01:50:56.610Z,45.64
2017-12-23T01:50:57.170Z,45.64
2017-12-23T01:50:57.771Z,45.64
2017-12-23T01:50:58.374Z,45.36
2017-12-23T01:50:58.972Z,45.64
2017-12-23T01:50:59.570Z,45.36
2017-12-23T01:51:00.171Z,45.45
2017-12-23T01:51:00.770Z,45.45
2017-12-23T01:51:55.251Z,45.36
2017-12-23T01:51:55.846Z,45.45
2017-12-23T01:51:56.449Z,45.07
2017-12-23T01:51:57.045Z,45.07
2017-12-23T01:51:57.646Z,45.17
2017-12-23T01:51:58.247Z,45.36
2017-12-23T01:51:58.844Z,45.54
2017-12-23T01:51:59.444Z,45.36
2017-12-23T01:52:53.924Z,44.79
2017-12-23T01:52:54.520Z,44.79
2017-12-23T01:52:55.123Z,44.79
2017-12-23T01:52:55.721Z,45.07
2017-12-23T01:52:56.320Z,44.79
2017-12-23T01:52:56.920Z,44.98
2017-12-23T01:52:57.520Z,44.79
2017-12-23T01:52:58.121Z,44.79
2017-12-23T01:53:51.577Z,45.17
2017-12-23T01:53:52.174Z,45.07
2017-12-23T01:53:52.791Z,45.07
2017-12-23T01:53:53.406Z,45.17
2017-12-23T01:53:53.973Z,45.17
2017-12-23T01:53:54.575Z,44.88
2017-12-23T01:53:55.174Z,45.17
2017-12-23T01:53:55.781Z,45.17
2017-12-23T01:54:50.303Z,44.69
2017-12-23T01:54:50.851Z,44.88
2017-12-23T01:54:51.449Z,44.60
2017-12-23T01:54:52.048Z,44.79
2017-12-23T01:54:52.647Z,44.79
2017-12-23T01:54:53.248Z,44.69
2017-12-23T01:54:53.847Z,44.88
2017-12-23T01:54:54.447Z,44.69
2017-12-23T01:55:48.935Z,44.79
2017-12-23T01:55:49.528Z,44.69
2017-12-23T01:55:50.126Z,44.60
2017-12-23T01:55:50.725Z,44.69
2017-12-23T01:55:51.325Z,44.69
2017-12-23T01:55:51.925Z,44.79
2017-12-23T01:55:52.524Z,44.69
2017-12-23T01:55:53.129Z,44.79
2017-12-23T01:56:47.119Z,44.79
2017-12-23T01:56:47.697Z,44.98
2017-12-23T01:56:48.288Z,44.88
2017-12-23T01:56:48.887Z,44.69
2017-12-23T01:56:49.489Z,44.98
2017-12-23T01:56:50.093Z,44.88
2017-12-23T01:56:50.687Z,44.79
2017-12-23T01:57:44.236Z,44.98
2017-12-23T01:57:44.829Z,44.98
2017-12-23T01:57:45.431Z,44.79
2017-12-23T01:57:46.036Z,45.07
2017-12-23T01:57:46.629Z,44.79
2017-12-23T01:57:47.229Z,44.98
2017-12-23T01:57:47.827Z,44.98
2017-12-23T01:57:48.429Z,44.88
2017-12-23T01:58:41.990Z,44.98
2017-12-23T01:58:42.585Z,44.69
2017-12-23T01:58:43.187Z,44.79
2017-12-23T01:58:43.794Z,44.79
2017-12-23T01:58:44.385Z,44.79
2017-12-23T01:58:44.985Z,44.69
2017-12-23T01:58:45.583Z,44.88
2017-12-23T01:58:46.183Z,44.69
2017-12-23T01:59:39.640Z,45.17
2017-12-23T01:59:40.239Z,44.98
2017-12-23T01:59:40.838Z,44.88
2017-12-23T01:59:41.446Z,44.69
2017-12-23T01:59:42.036Z,44.98
2017-12-23T01:59:42.636Z,45.07
2017-12-23T01:59:43.235Z,45.07
2017-12-23T01:59:43.834Z,45.07
2017-12-23T02:00:38.314Z,45.36
2017-12-23T02:00:38.911Z,45.36
2017-12-23T02:00:39.511Z,45.36
2017-12-23T02:00:40.113Z,45.45
2017-12-23T02:00:40.714Z,44.98
2017-12-23T02:00:41.310Z,45.45
2017-12-23T02:00:41.909Z,45.36
2017-12-23T02:00:42.512Z,45.36
2017-12-23T02:01:37.027Z,45.36
2017-12-23T02:01:37.588Z,45.45
2017-12-23T02:01:38.187Z,45.45
2017-12-23T02:01:38.789Z,45.45
2017-12-23T02:01:39.390Z,45.26
2017-12-23T02:01:39.987Z,45.36
2017-12-23T02:01:40.585Z,45.45
2017-12-23T02:01:41.186Z,45.17
2017-12-23T02:02:34.645Z,45.83
2017-12-23T02:02:35.240Z,45.83
2017-12-23T02:02:35.849Z,46.02
2017-12-23T02:02:36.452Z,45.92
2017-12-23T02:02:37.039Z,46.02
2017-12-23T02:02:37.644Z,45.92
2017-12-23T02:02:38.238Z,45.92
2017-12-23T02:02:38.837Z,45.73
2017-12-23T02:03:32.297Z,45.83
2017-12-23T02:03:32.892Z,45.92
2017-12-23T02:03:33.533Z,45.73
2017-12-23T02:03:34.092Z,45.92
2017-12-23T02:03:34.690Z,45.83
2017-12-23T02:03:35.292Z,45.73
2017-12-23T02:03:35.892Z,45.73
2017-12-23T02:03:36.491Z,46.02
2017-12-23T02:04:30.970Z,45.54
2017-12-23T02:04:31.565Z,45.54
2017-12-23T02:04:32.166Z,46.11
2017-12-23T02:04:32.768Z,45.64
2017-12-23T02:04:33.367Z,45.54
2017-12-23T02:04:33.971Z,45.64
2017-12-23T02:04:34.567Z,45.64
2017-12-23T02:04:35.164Z,45.54
2017-12-23T02:05:28.624Z,46.30
2017-12-23T02:05:29.222Z,46.40
2017-12-23T02:05:29.819Z,46.30
2017-12-23T02:05:30.420Z,46.30
2017-12-23T02:05:31.064Z,46.21
2017-12-23T02:05:31.631Z,46.30
2017-12-23T02:05:32.216Z,46.30
2017-12-23T02:05:32.817Z,46.02
2017-12-23T02:06:26.276Z,46.49
2017-12-23T02:06:26.874Z,46.21
2017-12-23T02:06:27.470Z,46.49
2017-12-23T02:06:28.070Z,46.21
2017-12-23T02:06:28.671Z,46.30
2017-12-23T02:06:29.269Z,46.59
2017-12-23T02:06:29.869Z,46.40
2017-12-23T02:06:30.470Z,46.49
2017-12-23T02:07:24.975Z,46.69
2017-12-23T02:07:25.545Z,46.69
2017-12-23T02:07:26.146Z,46.78
2017-12-23T02:07:26.744Z,46.78
2017-12-23T02:07:27.344Z,46.59
2017-12-23T02:07:27.946Z,46.69
2017-12-23T02:07:28.545Z,46.69
2017-12-23T02:07:29.143Z,46.69
2017-12-23T02:08:24.136Z,46.97
2017-12-23T02:08:24.733Z,46.97
2017-12-23T02:08:25.332Z,46.97
2017-12-23T02:08:25.933Z,46.88
2017-12-23T02:08:26.532Z,47.16
2017-12-23T02:08:27.132Z,47.53
2017-12-23T02:08:27.732Z,47.44
2017-12-23T02:09:21.280Z,47.53
2017-12-23T02:09:21.877Z,47.34
2017-12-23T02:09:22.475Z,47.53
2017-12-23T02:09:23.078Z,47.44
2017-12-23T02:09:23.674Z,47.63
2017-12-23T02:09:24.272Z,47.63
2017-12-23T02:09:24.875Z,47.53
2017-12-23T02:09:25.473Z,47.53
2017-12-23T02:10:19.959Z,48.01
2017-12-23T02:10:20.550Z,48.01
2017-12-23T02:10:21.150Z,47.92
2017-12-23T02:10:21.750Z,47.82
2017-12-23T02:10:22.351Z,48.01
2017-12-23T02:10:22.949Z,47.92
2017-12-23T02:10:23.548Z,47.92
2017-12-23T02:10:24.148Z,48.01
2017-12-23T02:11:17.608Z,47.92
2017-12-23T02:11:18.204Z,48.11
2017-12-23T02:11:18.801Z,47.92
2017-12-23T02:11:19.403Z,48.30
2017-12-23T02:11:20.002Z,48.30
2017-12-23T02:11:20.610Z,48.39
2017-12-23T02:11:21.211Z,48.39
2017-12-23T02:11:21.801Z,48.49
2017-12-23T02:12:15.288Z,49.05
2017-12-23T02:12:15.853Z,49.08
2017-12-23T02:12:16.453Z,49.15
2017-12-23T02:12:17.055Z,49.15
2017-12-23T02:12:17.654Z,49.08
2017-12-23T02:12:18.252Z,49.05
2017-12-23T02:12:18.853Z,49.05
2017-12-23T02:12:19.452Z,49.18
2017-12-23T02:13:13.013Z,49.82
2017-12-23T02:13:13.610Z,49.82
2017-12-23T02:13:14.208Z,49.82
2017-12-23T02:13:14.807Z,49.72
2017-12-23T02:13:15.408Z,49.72
2017-12-23T02:13:16.007Z,49.84
2017-12-23T02:13:16.606Z,49.72
2017-12-23T02:13:17.208Z,49.72
2017-12-23T02:14:11.686Z,50.95
2017-12-23T02:14:12.282Z,50.95
2017-12-23T02:14:12.881Z,50.67
2017-12-23T02:14:13.483Z,50.98
2017-12-23T02:14:14.087Z,50.76
2017-12-23T02:14:14.682Z,50.86
2017-12-23T02:14:15.281Z,50.95
2017-12-23T02:14:15.882Z,50.76
2017-12-23T02:15:10.361Z,51.74
2017-12-23T02:15:10.958Z,51.43
2017-12-23T02:15:11.559Z,51.33
2017-12-23T02:15:12.157Z,51.26
2017-12-23T02:15:12.757Z,51.24
2017-12-23T02:15:13.358Z,51.26
2017-12-23T02:15:13.957Z,51.33
2017-12-23T02:15:14.556Z,51.62
2017-12-23T02:16:09.040Z,52.40
2017-12-23T02:16:09.646Z,52.56
2017-12-23T02:16:10.234Z,52.37
2017-12-23T02:16:10.835Z,52.56
2017-12-23T02:16:11.434Z,52.69
2017-12-23T02:16:12.034Z,52.37
2017-12-23T02:16:12.634Z,52.76
2017-12-23T02:16:13.233Z,52.56
2017-12-23T02:17:06.721Z,53.80
2017-12-23T02:17:07.286Z,53.89
2017-12-23T02:17:07.887Z,53.83
2017-12-23T02:17:08.487Z,53.89
2017-12-23T02:17:09.087Z,53.83
2017-12-23T02:17:09.686Z,53.89
2017-12-23T02:17:10.294Z,53.89
2017-12-23T02:17:10.886Z,53.83
2017-12-23T02:18:04.342Z,54.11
2017-12-23T02:18:04.939Z,54.21
2017-12-23T02:18:05.539Z,54.02
2017-12-23T02:18:06.137Z,54.02
2017-12-23T02:18:06.738Z,54.21
2017-12-23T02:18:07.339Z,54.02
2017-12-23T02:18:07.938Z,54.21
2017-12-23T02:18:08.537Z,54.21
2017-12-23T02:19:01.995Z,54.58
2017-12-23T02:19:02.590Z,54.27
2017-12-23T02:19:03.189Z,54.78
2017-12-23T02:19:03.795Z,54.30
2017-12-23T02:19:04.390Z,54.68
2017-12-23T02:19:04.989Z,54.78
2017-12-23T02:19:05.593Z,54.78
2017-12-23T02:19:06.189Z,54.68
2017-12-23T02:19:59.646Z,55.63
2017-12-23T02:20:00.241Z,55.63
2017-12-23T02:20:00.841Z,55.25
2017-12-23T02:20:01.443Z,55.25
2017-12-23T02:20:02.043Z,55.35
2017-12-23T02:20:02.655Z,55.73
2017-12-23T02:20:03.241Z,55.44
2017-12-23T02:20:03.841Z,55.73
2017-12-23T02:20:58.319Z,56.77
2017-12-23T02:20:58.917Z,56.84
2017-12-23T02:20:59.516Z,57.15
2017-12-23T02:21:00.121Z,56.77
2017-12-23T02:21:00.719Z,56.96
2017-12-23T02:21:01.321Z,56.96
2017-12-23T02:21:01.916Z,56.77
2017-12-23T02:21:02.513Z,56.96
2017-12-23T02:21:55.974Z,57.62
2017-12-23T02:21:56.570Z,57.72
2017-12-23T02:21:57.172Z,57.72
2017-12-23T02:21:57.771Z,57.72
2017-12-23T02:21:58.368Z,57.53
2017-12-23T02:21:58.968Z,57.43
2017-12-23T02:21:59.571Z,57.43
2017-12-23T02:22:00.169Z,57.53
2017-12-23T02:22:54.162Z,58.48
2017-12-23T02:22:54.732Z,58.00
2017-12-23T02:22:55.333Z,58.29
2017-12-23T02:22:55.932Z,58.29
2017-12-23T02:22:56.531Z,58.48
2017-12-23T02:22:57.131Z,58.29
2017-12-23T02:22:57.732Z,58.29
2017-12-23T02:23:52.202Z,58.86
2017-12-23T02:23:52.794Z,58.58
2017-12-23T02:23:53.394Z,58.58
2017-12-23T02:23:53.992Z,58.58
2017-12-23T02:23:54.593Z,58.86
2017-12-23T02:23:55.193Z,58.67
2017-12-23T02:23:55.793Z,58.76
2017-12-23T02:23:56.392Z,58.86
2017-12-23T02:24:49.850Z,59.62
2017-12-23T02:24:50.449Z,59.71
2017-12-23T02:24:51.046Z,59.52
2017-12-23T02:24:51.653Z,59.52
2017-12-23T02:24:52.248Z,59.62
2017-12-23T02:24:52.846Z,59.71
2017-12-23T02:24:53.446Z,59.81
2017-12-23T02:24:54.045Z,59.91
2017-12-23T02:25:48.523Z,59.91
2017-12-23T02:25:49.122Z,60.38
2017-12-23T02:25:49.721Z,60.38
2017-12-23T02:25:50.323Z,60.47
2017-12-23T02:25:50.920Z,60.38
2017-12-23T02:25:51.521Z,60.10
2017-12-23T02:25:52.122Z,60.10
2017-12-23T02:25:52.720Z,60.19
2017-12-23T02:26:47.198Z,62.56
2017-12-23T02:26:47.798Z,62.56
2017-12-23T02:26:48.396Z,62.56
2017-12-23T02:26:48.995Z,62.66
2017-12-23T02:26:49.598Z,62.37
2017-12-23T02:26:50.196Z,62.08
2017-12-23T02:26:50.796Z,62.27
2017-12-23T02:26:51.395Z,62.66
2017-12-23T02:27:44.894Z,63.42
2017-12-23T02:27:45.449Z,63.51
2017-12-23T02:27:46.049Z,63.51
2017-12-23T02:27:46.648Z,63.51
2017-12-23T02:27:47.252Z,63.51
2017-12-23T02:27:47.848Z,63.51
2017-12-23T02:27:48.448Z,63.51
2017-12-23T02:27:49.052Z,63.51
2017-12-23T02:28:43.528Z,64.17
2017-12-23T02:28:44.123Z,63.98
2017-12-23T02:28:44.725Z,64.27
2017-12-23T02:28:45.324Z,64.37
2017-12-23T02:28:45.928Z,64.65
2017-12-23T02:28:46.523Z,64.84
2017-12-23T02:28:47.123Z,64.75
2017-12-23T02:28:47.724Z,64.37
2017-12-23T02:29:41.181Z,64.94
2017-12-23T02:29:41.778Z,65.03
2017-12-23T02:29:42.376Z,65.12
2017-12-23T02:29:42.976Z,65.03
2017-12-23T02:29:43.576Z,65.12
2017-12-23T02:29:44.176Z,65.31
2017-12-23T02:29:44.776Z,65.03
2017-12-23T02:29:45.380Z,65.03
2017-12-23T02:30:38.832Z,66.08
2017-12-23T02:30:39.428Z,65.98
2017-12-23T02:30:40.033Z,65.88
2017-12-23T02:30:40.627Z,66.08
2017-12-23T02:30:41.236Z,66.17
2017-12-23T02:30:41.826Z,66.17
2017-12-23T02:30:42.427Z,66.17
2017-12-23T02:30:43.040Z,66.36
2017-12-23T02:31:36.486Z,66.64
2017-12-23T02:31:37.079Z,66.55
2017-12-23T02:31:37.682Z,66.64
2017-12-23T02:31:38.281Z,66.64
2017-12-23T02:31:38.883Z,66.55
2017-12-23T02:31:39.480Z,66.64
2017-12-23T02:31:40.081Z,66.64
2017-12-23T02:31:40.691Z,66.64
2017-12-23T02:32:34.655Z,67.02
2017-12-23T02:32:35.245Z,66.93
2017-12-23T02:32:35.844Z,67.02
2017-12-23T02:32:36.444Z,67.12
2017-12-23T02:32:37.043Z,67.31
2017-12-23T02:32:37.643Z,67.02
2017-12-23T02:32:38.247Z,67.21
2017-12-23T02:33:31.815Z,68.07
2017-12-23T02:33:32.386Z,68.26
2017-12-23T02:33:32.983Z,67.79
2017-12-23T02:33:33.584Z,67.88
2017-12-23T02:33:34.185Z,67.79
2017-12-23T02:33:34.784Z,68.64
2017-12-23T02:33:35.383Z,67.97
2017-12-23T02:33:35.984Z,68.07
2017-12-23T02:52:07.058Z,73.76
2017-12-23T02:52:07.631Z,73.96
2017-12-23T02:52:08.228Z,73.76
2017-12-23T02:52:08.831Z,73.96
2017-12-23T02:52:09.427Z,73.96
2017-12-23T02:52:10.027Z,73.67
2017-12-23T02:52:10.625Z,73.57
2017-12-23T02:52:11.225Z,74.33
2017-12-23T02:53:05.712Z,73.57
2017-12-23T02:53:06.303Z,73.57
2017-12-23T02:53:06.903Z,73.57
2017-12-23T02:53:07.511Z,73.38
2017-12-23T02:53:08.102Z,73.67
2017-12-23T02:53:08.703Z,73.67
2017-12-23T02:53:09.303Z,73.76
2017-12-23T02:53:09.910Z,73.76
2017-12-23T02:54:04.388Z,73.19
2017-12-23T02:54:04.979Z,73.19
2017-12-23T02:54:05.578Z,73.00
2017-12-23T02:54:06.180Z,73.19
2017-12-23T02:54:06.777Z,73.00
2017-12-23T02:54:07.380Z,73.00
2017-12-23T02:54:07.977Z,73.19
2017-12-23T02:54:08.584Z,72.72
2017-12-23T02:55:02.147Z,72.72
2017-12-23T02:55:02.734Z,72.63
2017-12-23T02:55:03.334Z,72.72
2017-12-23T02:55:03.933Z,72.72
2017-12-23T02:55:04.534Z,72.72
2017-12-23T02:55:05.134Z,72.63
2017-12-23T02:55:05.733Z,72.72
2017-12-23T02:55:06.333Z,72.81
2017-12-23T02:55:59.823Z,72.25
2017-12-23T02:56:00.385Z,72.44
2017-12-23T02:56:00.987Z,72.34
2017-12-23T02:56:01.586Z,72.34
2017-12-23T02:56:02.187Z,72.25
2017-12-23T02:56:02.785Z,72.25
2017-12-23T02:56:03.385Z,72.34
2017-12-23T02:56:03.985Z,72.25
2017-12-23T02:56:57.444Z,71.77
2017-12-23T02:56:58.040Z,71.67
2017-12-23T02:56:58.639Z,71.77
2017-12-23T02:56:59.238Z,71.67
2017-12-23T02:56:59.838Z,71.77
2017-12-23T02:57:00.438Z,71.67
2017-12-23T02:57:01.038Z,71.77
2017-12-23T02:57:01.637Z,71.86
2017-12-23T02:57:55.098Z,70.82
2017-12-23T02:57:55.692Z,70.92
2017-12-23T02:57:56.291Z,70.82
2017-12-23T02:57:56.889Z,70.82
2017-12-23T02:57:57.490Z,71.01
2017-12-23T02:57:58.090Z,71.01
2017-12-23T02:57:58.692Z,70.92
2017-12-23T02:57:59.290Z,70.92
2017-12-23T02:58:52.746Z,70.63
2017-12-23T02:58:53.344Z,70.63
2017-12-23T02:58:53.942Z,70.54
2017-12-23T02:58:54.542Z,70.54
2017-12-23T02:58:55.141Z,70.73
2017-12-23T02:58:55.743Z,70.63
2017-12-23T02:58:56.340Z,70.63
2017-12-23T02:58:56.942Z,70.44
2017-12-23T02:59:51.425Z,70.06
2017-12-23T02:59:52.017Z,70.06
2017-12-23T02:59:52.617Z,70.06
2017-12-23T02:59:53.218Z,70.06
2017-12-23T02:59:53.816Z,70.15
2017-12-23T02:59:54.418Z,70.06
2017-12-23T02:59:55.017Z,70.06
2017-12-23T02:59:55.616Z,69.87
2017-12-23T03:00:50.096Z,70.15
2017-12-23T03:00:50.693Z,70.15
2017-12-23T03:00:51.293Z,70.15
2017-12-23T03:00:51.894Z,70.15
2017-12-23T03:00:52.493Z,70.15
2017-12-23T03:00:53.095Z,69.96
2017-12-23T03:00:53.694Z,70.06
2017-12-23T03:00:54.296Z,70.15
2017-12-23T03:01:48.807Z,69.49
2017-12-23T03:01:49.370Z,69.21
2017-12-23T03:01:49.969Z,69.49
2017-12-23T03:01:50.569Z,69.11
2017-12-23T03:01:51.168Z,69.49
2017-12-23T03:01:51.800Z,69.68
2017-12-23T03:01:52.369Z,69.40
2017-12-23T03:01:52.968Z,69.40
2017-12-23T03:02:46.425Z,69.30
2017-12-23T03:02:47.023Z,69.02
2017-12-23T03:02:47.622Z,69.11
2017-12-23T03:02:48.221Z,69.21
2017-12-23T03:02:48.821Z,69.11
2017-12-23T03:02:49.422Z,69.30
2017-12-23T03:02:50.020Z,69.21
2017-12-23T03:02:50.621Z,69.21
2017-12-23T03:03:45.101Z,69.02
2017-12-23T03:03:45.696Z,69.02
2017-12-23T03:03:46.308Z,68.92
2017-12-23T03:03:46.902Z,68.92
2017-12-23T03:03:47.496Z,68.92
2017-12-23T03:03:48.104Z,68.92
2017-12-23T03:03:48.697Z,68.83
2017-12-23T03:03:49.300Z,68.92
2017-12-23T03:04:42.757Z,68.26
2017-12-23T03:04:43.351Z,68.35
2017-12-23T03:04:43.950Z,68.54
2017-12-23T03:04:44.552Z,67.97
2017-12-23T03:04:45.152Z,67.88
2017-12-23T03:04:45.755Z,67.88
2017-12-23T03:04:46.349Z,68.54
2017-12-23T03:04:46.947Z,68.44
2017-12-23T03:05:41.430Z,68.44
2017-12-23T03:05:42.028Z,68.54
2017-12-23T03:05:43.480Z,68.44
2017-12-23T03:05:43.985Z,68.54
2017-12-23T03:05:44.588Z,68.26
2017-12-23T03:05:45.185Z,68.44
2017-12-23T03:05:45.789Z,68.44
2017-12-23T03:06:39.334Z,68.44
2017-12-23T03:06:39.882Z,68.35
2017-12-23T03:06:40.483Z,68.35
2017-12-23T03:06:41.094Z,68.35
2017-12-23T03:06:41.680Z,68.35
2017-12-23T03:06:42.282Z,68.44
2017-12-23T03:06:42.881Z,68.26
2017-12-23T03:06:43.480Z,68.35
2017-12-23T03:07:37.005Z,68.54
2017-12-23T03:07:37.534Z,68.64
2017-12-23T03:07:38.132Z,68.64
2017-12-23T03:07:38.732Z,68.35
2017-12-23T03:07:39.332Z,68.64
2017-12-23T03:07:39.932Z,68.35
2017-12-23T03:07:40.533Z,68.44
2017-12-23T03:07:41.131Z,68.35
2017-12-23T03:08:35.612Z,68.07
2017-12-23T03:08:36.209Z,67.97
2017-12-23T03:08:36.813Z,68.07
2017-12-23T03:08:37.409Z,67.97
2017-12-23T03:08:38.008Z,68.07
2017-12-23T03:08:38.608Z,68.07
2017-12-23T03:08:39.209Z,67.97
2017-12-23T03:08:39.809Z,67.88
2017-12-23T03:09:33.270Z,67.59
2017-12-23T03:09:33.861Z,67.59
2017-12-23T03:09:34.462Z,67.79
2017-12-23T03:09:35.063Z,67.59
2017-12-23T03:09:35.664Z,67.79
2017-12-23T03:09:36.262Z,67.79
2017-12-23T03:09:36.862Z,67.69
2017-12-23T03:09:37.460Z,67.88
2017-12-23T03:10:31.945Z,68.07
2017-12-23T03:10:32.539Z,68.07
2017-12-23T03:10:33.140Z,67.69
2017-12-23T03:10:33.742Z,67.59
2017-12-23T03:10:34.340Z,68.16
2017-12-23T03:10:34.938Z,68.07
2017-12-23T03:10:35.538Z,68.07
2017-12-23T03:10:36.140Z,67.59
2017-12-23T03:11:29.592Z,67.69
2017-12-23T03:11:30.189Z,67.69
2017-12-23T03:11:30.788Z,67.79
2017-12-23T03:11:31.389Z,67.69
2017-12-23T03:11:31.989Z,67.88
2017-12-23T03:11:32.587Z,67.97
2017-12-23T03:11:33.186Z,67.79
2017-12-23T03:11:33.790Z,67.88
2017-12-23T03:12:28.294Z,68.07
2017-12-23T03:12:28.870Z,67.97
2017-12-23T03:12:29.464Z,68.35
2017-12-23T03:12:30.065Z,68.35
2017-12-23T03:12:30.662Z,68.26
2017-12-23T03:12:31.269Z,68.44
2017-12-23T03:12:31.863Z,68.35
2017-12-23T03:12:32.464Z,68.54
2017-12-23T03:13:26.942Z,69.11
2017-12-23T03:13:27.539Z,68.44
2017-12-23T03:13:28.139Z,68.92
2017-12-23T03:13:28.739Z,69.02
2017-12-23T03:13:29.339Z,68.92
2017-12-23T03:13:29.943Z,69.02
2017-12-23T03:13:30.538Z,68.44
2017-12-23T03:13:31.139Z,69.02
2017-12-23T03:14:25.628Z,69.11
2017-12-23T03:14:26.216Z,69.02
2017-12-23T03:14:26.815Z,69.11
2017-12-23T03:14:27.419Z,69.21
2017-12-23T03:14:28.013Z,68.92
2017-12-23T03:14:28.615Z,68.83
2017-12-23T03:14:29.214Z,68.83
2017-12-23T03:14:29.813Z,68.83
2017-12-23T03:15:24.292Z,69.21
2017-12-23T03:15:24.890Z,69.11
2017-12-23T03:15:25.491Z,69.02
2017-12-23T03:15:26.092Z,69.02
2017-12-23T03:15:26.691Z,69.02
2017-12-23T03:15:27.290Z,69.02
2017-12-23T03:15:27.890Z,69.02
2017-12-23T03:15:28.489Z,69.30
2017-12-23T03:16:22.974Z,69.87
2017-12-23T03:16:23.567Z,69.78
2017-12-23T03:16:24.165Z,69.87
2017-12-23T03:16:24.768Z,69.68
2017-12-23T03:16:25.366Z,69.78
2017-12-23T03:16:25.970Z,69.78
2017-12-23T03:16:26.566Z,69.78
2017-12-23T03:16:27.164Z,69.40
2017-12-23T03:17:20.657Z,69.96
2017-12-23T03:17:21.219Z,69.87
2017-12-23T03:17:21.818Z,70.06
2017-12-23T03:17:22.418Z,70.15
2017-12-23T03:17:23.017Z,70.06
2017-12-23T03:17:23.617Z,70.15
2017-12-23T03:17:24.217Z,69.96
2017-12-23T03:17:24.819Z,69.96
2017-12-23T03:18:18.272Z,70.44
2017-12-23T03:18:18.868Z,70.73
2017-12-23T03:18:19.470Z,70.44
2017-12-23T03:18:20.069Z,70.44
2017-12-23T03:18:20.669Z,70.54
2017-12-23T03:18:21.268Z,70.54
2017-12-23T03:18:21.868Z,70.44
2017-12-23T03:18:22.469Z,70.44
2017-12-23T03:19:16.954Z,70.44
2017-12-23T03:19:17.545Z,70.44
2017-12-23T03:19:18.145Z,70.44
2017-12-23T03:19:18.744Z,70.44
2017-12-23T03:19:19.344Z,70.44
2017-12-23T03:19:19.944Z,70.44
2017-12-23T03:19:20.545Z,70.73
2017-12-23T03:19:21.148Z,70.63
2017-12-23T03:20:14.600Z,70.63
2017-12-23T03:20:15.198Z,70.63
2017-12-23T03:20:15.795Z,70.63
2017-12-23T03:20:16.396Z,70.82
2017-12-23T03:20:16.997Z,70.73
2017-12-23T03:20:17.596Z,70.63
2017-12-23T03:20:18.195Z,70.92
2017-12-23T03:20:18.796Z,70.92
2017-12-23T03:21:12.251Z,71.11
2017-12-23T03:21:12.847Z,71.30
2017-12-23T03:21:13.447Z,71.11
2017-12-23T03:21:14.048Z,71.11
2017-12-23T03:21:14.649Z,71.20
2017-12-23T03:21:15.251Z,71.11
2017-12-23T03:21:15.847Z,71.20
2017-12-23T03:21:16.447Z,71.30
2017-12-23T03:22:10.927Z,71.67
2017-12-23T03:22:11.522Z,71.77
2017-12-23T03:22:12.123Z,71.77
2017-12-23T03:22:12.721Z,71.58
2017-12-23T03:22:13.322Z,71.48
2017-12-23T03:22:13.924Z,71.77
2017-12-23T03:22:14.522Z,71.48
2017-12-23T03:22:15.120Z,71.67
2017-12-23T03:23:08.661Z,72.53
2017-12-23T03:23:09.230Z,72.34
2017-12-23T03:23:09.777Z,72.44
2017-12-23T03:23:10.374Z,72.34
2017-12-23T03:23:10.975Z,72.44
2017-12-23T03:23:11.574Z,72.34
2017-12-23T03:23:12.174Z,72.44
2017-12-23T03:23:12.772Z,72.34
2017-12-23T03:24:07.252Z,72.44
2017-12-23T03:24:07.853Z,72.15
2017-12-23T03:24:08.451Z,72.47
2017-12-23T03:24:09.050Z,72.06
2017-12-23T03:24:09.649Z,71.96
2017-12-23T03:24:10.256Z,72.19
2017-12-23T03:24:10.851Z,72.15
2017-12-23T03:24:11.449Z,72.15
2017-12-23T03:25:04.905Z,72.85
2017-12-23T03:25:05.504Z,72.44
2017-12-23T03:25:06.103Z,72.91
2017-12-23T03:25:06.702Z,72.91
2017-12-23T03:25:07.301Z,72.85
2017-12-23T03:25:07.904Z,72.91
2017-12-23T03:25:08.502Z,72.44
2017-12-23T03:25:09.102Z,72.47
2017-12-23T03:26:03.581Z,72.75
2017-12-23T03:26:04.179Z,72.44
2017-12-23T03:26:04.783Z,72.44
2017-12-23T03:26:05.378Z,72.53
2017-12-23T03:26:05.992Z,72.53
2017-12-23T03:26:06.627Z,72.44
2017-12-23T03:26:07.175Z,72.44
2017-12-23T03:26:07.779Z,72.44
2017-12-23T03:27:01.234Z,72.34
2017-12-23T03:27:01.829Z,72.53
2017-12-23T03:27:02.430Z,72.63
2017-12-23T03:27:03.032Z,72.53
2017-12-23T03:27:03.630Z,72.63
2017-12-23T03:27:04.229Z,72.63
2017-12-23T03:27:04.834Z,72.44
2017-12-23T03:27:05.428Z,72.44
2017-12-23T03:27:59.908Z,72.81
2017-12-23T03:28:00.505Z,72.91
2017-12-23T03:28:01.104Z,72.91
2017-12-23T03:28:01.703Z,72.81
2017-12-23T03:28:02.305Z,72.91
2017-12-23T03:28:02.904Z,72.81
2017-12-23T03:28:03.512Z,72.91
2017-12-23T03:28:04.104Z,72.91
2017-12-23T03:28:57.595Z,72.75
2017-12-23T03:28:58.157Z,72.91
2017-12-23T03:28:58.760Z,72.85
2017-12-23T03:28:59.357Z,72.75
2017-12-23T03:28:59.956Z,73.04
2017-12-23T03:29:00.556Z,72.85
2017-12-23T03:29:01.158Z,72.91
2017-12-23T03:29:01.756Z,72.85
2017-12-23T03:29:56.236Z,73.19
2017-12-23T03:29:56.833Z,73.04
2017-12-23T03:29:57.431Z,73.23
2017-12-23T03:29:58.032Z,73.23
2017-12-23T03:29:58.632Z,72.85
2017-12-23T03:29:59.232Z,72.81